sensor_id;sensor_type;location;lat;lon;timestamp;P1;durP1;ratioP1;P2;durP2;ratioP2
46767;SDS011;69007;48.978;18.066;2024-01-06T00:01:19;14.20;;;6.97;;
46767;SDS011;69007;48.978;18.066;2024-01-06T00:03:45;14.38;;;5.00;;
46767;SDS011;69007;48.978;18.066;2024-01-06T00:06:11;8.23;;;4.13;;
46767;SDS011;69007;48.978;18.066;2024-01-06T00:08:38;9.75;;;4.35;;
46767;SDS011;69007;48.978;18.066;2024-01-06T00:11:04;12.30;;;4.40;;
46767;SDS011;69007;48.978;18.066;2024-01-06T00:13:29;10.00;;;4.03;;
46767;SDS011;69007;48.978;18.066;2024-01-06T00:15:55;8.05;;;4.05;;
46767;SDS011;69007;48.978;18.066;2024-01-06T00:18:20;10.77;;;4.38;;
46767;SDS011;69007;48.978;18.066;2024-01-06T00:20:45;10.30;;;3.92;;
46767;SDS011;69007;48.978;18.066;2024-01-06T00:23:11;7.78;;;4.35;;
46767;SDS011;69007;48.978;18.066;2024-01-06T00:25:36;7.95;;;4.40;;
46767;SDS011;69007;48.978;18.066;2024-01-06T00:28:01;7.20;;;4.22;;
46767;SDS011;69007;48.978;18.066;2024-01-06T00:30:27;12.60;;;5.40;;
46767;SDS011;69007;48.978;18.066;2024-01-06T00:32:52;12.40;;;4.53;;
46767;SDS011;69007;48.978;18.066;2024-01-06T00:35:17;13.43;;;4.57;;
46767;SDS011;69007;48.978;18.066;2024-01-06T00:37:43;7.10;;;3.83;;
46767;SDS011;69007;48.978;18.066;2024-01-06T00:40:08;6.43;;;4.05;;
46767;SDS011;69007;48.978;18.066;2024-01-06T00:42:34;9.10;;;4.80;;
46767;SDS011;69007;48.978;18.066;2024-01-06T00:45:00;10.70;;;4.70;;
46767;SDS011;69007;48.978;18.066;2024-01-06T00:47:25;11.45;;;4.10;;
46767;SDS011;69007;48.978;18.066;2024-01-06T00:49:51;7.85;;;4.10;;
46767;SDS011;69007;48.978;18.066;2024-01-06T00:52:16;8.02;;;3.97;;
46767;SDS011;69007;48.978;18.066;2024-01-06T00:54:42;8.48;;;3.90;;
46767;SDS011;69007;48.978;18.066;2024-01-06T00:57:08;18.75;;;4.68;;
46767;SDS011;69007;48.978;18.066;2024-01-06T00:59:33;11.38;;;4.43;;
46767;SDS011;69007;48.978;18.066;2024-01-06T01:01:59;11.23;;;4.95;;
46767;SDS011;69007;48.978;18.066;2024-01-06T01:04:25;17.17;;;4.93;;
46767;SDS011;69007;48.978;18.066;2024-01-06T01:06:51;10.98;;;4.18;;
46767;SDS011;69007;48.978;18.066;2024-01-06T01:09:16;8.55;;;4.50;;
46767;SDS011;69007;48.978;18.066;2024-01-06T01:11:42;8.52;;;4.13;;
46767;SDS011;69007;48.978;18.066;2024-01-06T01:14:08;7.13;;;4.20;;
46767;SDS011;69007;48.978;18.066;2024-01-06T01:16:33;7.40;;;4.10;;
46767;SDS011;69007;48.978;18.066;2024-01-06T01:18:59;13.65;;;4.43;;
46767;SDS011;69007;48.978;18.066;2024-01-06T01:21:24;7.20;;;3.97;;
46767;SDS011;69007;48.978;18.066;2024-01-06T01:23:49;9.70;;;3.97;;
46767;SDS011;69007;48.978;18.066;2024-01-06T01:26:15;9.63;;;4.22;;
46767;SDS011;69007;48.978;18.066;2024-01-06T01:28:40;10.27;;;4.65;;
46767;SDS011;69007;48.978;18.066;2024-01-06T01:31:06;7.60;;;4.05;;
46767;SDS011;69007;48.978;18.066;2024-01-06T01:33:31;8.90;;;4.28;;
46767;SDS011;69007;48.978;18.066;2024-01-06T01:35:56;8.35;;;4.28;;
46767;SDS011;69007;48.978;18.066;2024-01-06T01:38:22;17.35;;;4.53;;
46767;SDS011;69007;48.978;18.066;2024-01-06T01:40:47;7.15;;;4.18;;
46767;SDS011;69007;48.978;18.066;2024-01-06T01:43:17;8.95;;;3.88;;
46767;SDS011;69007;48.978;18.066;2024-01-06T01:45:43;5.82;;;3.90;;
46767;SDS011;69007;48.978;18.066;2024-01-06T01:48:08;11.75;;;4.28;;
46767;SDS011;69007;48.978;18.066;2024-01-06T01:50:34;13.27;;;4.10;;
46767;SDS011;69007;48.978;18.066;2024-01-06T01:52:59;12.30;;;3.85;;
46767;SDS011;69007;48.978;18.066;2024-01-06T01:55:25;8.63;;;3.80;;
46767;SDS011;69007;48.978;18.066;2024-01-06T01:57:51;11.00;;;4.72;;
46767;SDS011;69007;48.978;18.066;2024-01-06T02:00:17;10.50;;;4.10;;
46767;SDS011;69007;48.978;18.066;2024-01-06T02:02:42;8.45;;;4.90;;
46767;SDS011;69007;48.978;18.066;2024-01-06T02:05:08;11.95;;;4.30;;
46767;SDS011;69007;48.978;18.066;2024-01-06T02:07:33;6.70;;;4.22;;
46767;SDS011;69007;48.978;18.066;2024-01-06T02:09:58;7.22;;;3.88;;
46767;SDS011;69007;48.978;18.066;2024-01-06T02:12:24;9.57;;;3.90;;
46767;SDS011;69007;48.978;18.066;2024-01-06T02:14:49;7.90;;;4.05;;
46767;SDS011;69007;48.978;18.066;2024-01-06T02:17:14;7.72;;;4.05;;
46767;SDS011;69007;48.978;18.066;2024-01-06T02:19:40;7.05;;;3.85;;
46767;SDS011;69007;48.978;18.066;2024-01-06T02:22:05;10.23;;;3.38;;
46767;SDS011;69007;48.978;18.066;2024-01-06T02:24:30;6.07;;;3.90;;
46767;SDS011;69007;48.978;18.066;2024-01-06T02:26:56;9.55;;;3.90;;
46767;SDS011;69007;48.978;18.066;2024-01-06T02:29:21;10.93;;;4.03;;
46767;SDS011;69007;48.978;18.066;2024-01-06T02:31:46;7.03;;;4.57;;
46767;SDS011;69007;48.978;18.066;2024-01-06T02:34:12;10.35;;;4.38;;
46767;SDS011;69007;48.978;18.066;2024-01-06T02:36:37;8.23;;;4.05;;
46767;SDS011;69007;48.978;18.066;2024-01-06T02:39:02;9.32;;;4.30;;
46767;SDS011;69007;48.978;18.066;2024-01-06T02:41:28;8.13;;;4.28;;
46767;SDS011;69007;48.978;18.066;2024-01-06T02:43:54;7.50;;;3.30;;
46767;SDS011;69007;48.978;18.066;2024-01-06T02:46:20;6.57;;;3.85;;
46767;SDS011;69007;48.978;18.066;2024-01-06T02:48:45;9.45;;;3.85;;
46767;SDS011;69007;48.978;18.066;2024-01-06T02:51:11;7.68;;;4.15;;
46767;SDS011;69007;48.978;18.066;2024-01-06T02:53:37;8.73;;;3.78;;
46767;SDS011;69007;48.978;18.066;2024-01-06T02:56:03;7.60;;;4.18;;
46767;SDS011;69007;48.978;18.066;2024-01-06T02:58:29;11.63;;;4.20;;
46767;SDS011;69007;48.978;18.066;2024-01-06T03:00:54;17.73;;;5.25;;
46767;SDS011;69007;48.978;18.066;2024-01-06T03:03:19;11.10;;;4.22;;
46767;SDS011;69007;48.978;18.066;2024-01-06T03:05:45;9.43;;;4.53;;
46767;SDS011;69007;48.978;18.066;2024-01-06T03:08:13;8.02;;;4.15;;
46767;SDS011;69007;48.978;18.066;2024-01-06T03:10:39;8.27;;;3.83;;
46767;SDS011;69007;48.978;18.066;2024-01-06T03:13:04;9.60;;;4.55;;
46767;SDS011;69007;48.978;18.066;2024-01-06T03:15:30;9.48;;;4.32;;
46767;SDS011;69007;48.978;18.066;2024-01-06T03:17:55;10.82;;;4.20;;
46767;SDS011;69007;48.978;18.066;2024-01-06T03:20:20;10.35;;;4.70;;
46767;SDS011;69007;48.978;18.066;2024-01-06T03:22:46;9.75;;;4.63;;
46767;SDS011;69007;48.978;18.066;2024-01-06T03:25:11;6.82;;;3.95;;
46767;SDS011;69007;48.978;18.066;2024-01-06T03:27:37;8.15;;;4.20;;
46767;SDS011;69007;48.978;18.066;2024-01-06T03:30:02;10.25;;;3.90;;
46767;SDS011;69007;48.978;18.066;2024-01-06T03:32:28;17.63;;;4.15;;
46767;SDS011;69007;48.978;18.066;2024-01-06T03:34:53;9.73;;;4.38;;
46767;SDS011;69007;48.978;18.066;2024-01-06T03:37:19;15.45;;;4.25;;
46767;SDS011;69007;48.978;18.066;2024-01-06T03:39:44;6.20;;;4.03;;
46767;SDS011;69007;48.978;18.066;2024-01-06T03:42:09;13.43;;;4.63;;
46767;SDS011;69007;48.978;18.066;2024-01-06T03:44:35;9.98;;;5.05;;
46767;SDS011;69007;48.978;18.066;2024-01-06T03:47:00;11.15;;;4.53;;
46767;SDS011;69007;48.978;18.066;2024-01-06T03:49:26;9.43;;;4.22;;
46767;SDS011;69007;48.978;18.066;2024-01-06T03:51:52;8.75;;;4.68;;
46767;SDS011;69007;48.978;18.066;2024-01-06T03:54:17;7.75;;;4.72;;
46767;SDS011;69007;48.978;18.066;2024-01-06T03:56:42;10.25;;;4.40;;
46767;SDS011;69007;48.978;18.066;2024-01-06T03:59:08;12.98;;;4.47;;
46767;SDS011;69007;48.978;18.066;2024-01-06T04:01:33;10.45;;;4.63;;
46767;SDS011;69007;48.978;18.066;2024-01-06T04:04:02;10.23;;;4.55;;
46767;SDS011;69007;48.978;18.066;2024-01-06T04:06:28;7.90;;;4.38;;
46767;SDS011;69007;48.978;18.066;2024-01-06T04:08:53;12.13;;;4.75;;
46767;SDS011;69007;48.978;18.066;2024-01-06T04:11:20;8.23;;;4.72;;
46767;SDS011;69007;48.978;18.066;2024-01-06T04:13:45;10.52;;;4.70;;
46767;SDS011;69007;48.978;18.066;2024-01-06T04:16:11;9.88;;;5.45;;
46767;SDS011;69007;48.978;18.066;2024-01-06T04:18:36;14.05;;;6.70;;
46767;SDS011;69007;48.978;18.066;2024-01-06T04:21:02;9.30;;;5.85;;
46767;SDS011;69007;48.978;18.066;2024-01-06T04:23:27;17.88;;;7.18;;
46767;SDS011;69007;48.978;18.066;2024-01-06T04:25:53;12.02;;;7.07;;
46767;SDS011;69007;48.978;18.066;2024-01-06T04:28:18;20.30;;;8.90;;
46767;SDS011;69007;48.978;18.066;2024-01-06T04:30:43;16.95;;;8.93;;
46767;SDS011;69007;48.978;18.066;2024-01-06T04:33:09;14.13;;;7.45;;
46767;SDS011;69007;48.978;18.066;2024-01-06T04:35:34;13.80;;;7.53;;
46767;SDS011;69007;48.978;18.066;2024-01-06T04:37:59;17.63;;;8.20;;
46767;SDS011;69007;48.978;18.066;2024-01-06T04:40:25;11.00;;;7.03;;
46767;SDS011;69007;48.978;18.066;2024-01-06T04:42:50;11.75;;;6.90;;
46767;SDS011;69007;48.978;18.066;2024-01-06T04:45:15;13.57;;;6.50;;
46767;SDS011;69007;48.978;18.066;2024-01-06T04:47:41;9.43;;;6.60;;
46767;SDS011;69007;48.978;18.066;2024-01-06T04:50:06;14.23;;;7.45;;
46767;SDS011;69007;48.978;18.066;2024-01-06T04:52:32;16.30;;;6.65;;
46767;SDS011;69007;48.978;18.066;2024-01-06T04:54:57;10.75;;;6.38;;
46767;SDS011;69007;48.978;18.066;2024-01-06T04:57:23;13.93;;;6.30;;
46767;SDS011;69007;48.978;18.066;2024-01-06T04:59:48;10.60;;;5.60;;
46767;SDS011;69007;48.978;18.066;2024-01-06T05:02:13;11.30;;;5.22;;
46767;SDS011;69007;48.978;18.066;2024-01-06T05:04:39;8.82;;;5.50;;
46767;SDS011;69007;48.978;18.066;2024-01-06T05:07:04;11.77;;;5.38;;
46767;SDS011;69007;48.978;18.066;2024-01-06T05:09:29;14.70;;;6.20;;
46767;SDS011;69007;48.978;18.066;2024-01-06T05:11:55;16.02;;;6.20;;
46767;SDS011;69007;48.978;18.066;2024-01-06T05:14:20;8.43;;;4.82;;
46767;SDS011;69007;48.978;18.066;2024-01-06T05:16:45;9.23;;;5.70;;
46767;SDS011;69007;48.978;18.066;2024-01-06T05:19:11;12.68;;;5.78;;
46767;SDS011;69007;48.978;18.066;2024-01-06T05:21:36;13.77;;;5.30;;
46767;SDS011;69007;48.978;18.066;2024-01-06T05:24:02;10.93;;;5.25;;
46767;SDS011;69007;48.978;18.066;2024-01-06T05:26:28;8.23;;;4.80;;
46767;SDS011;69007;48.978;18.066;2024-01-06T05:28:53;16.13;;;5.43;;
46767;SDS011;69007;48.978;18.066;2024-01-06T05:31:19;9.05;;;4.72;;
46767;SDS011;69007;48.978;18.066;2024-01-06T05:33:44;14.20;;;4.90;;
46767;SDS011;69007;48.978;18.066;2024-01-06T05:36:09;9.23;;;5.50;;
46767;SDS011;69007;48.978;18.066;2024-01-06T05:38:36;10.57;;;4.97;;
46767;SDS011;69007;48.978;18.066;2024-01-06T05:41:01;11.05;;;4.80;;
46767;SDS011;69007;48.978;18.066;2024-01-06T05:43:27;12.18;;;4.72;;
46767;SDS011;69007;48.978;18.066;2024-01-06T05:45:52;15.05;;;5.28;;
46767;SDS011;69007;48.978;18.066;2024-01-06T05:48:17;10.80;;;4.85;;
46767;SDS011;69007;48.978;18.066;2024-01-06T05:50:43;11.15;;;5.25;;
46767;SDS011;69007;48.978;18.066;2024-01-06T05:53:08;11.07;;;5.38;;
46767;SDS011;69007;48.978;18.066;2024-01-06T05:55:34;12.70;;;5.40;;
46767;SDS011;69007;48.978;18.066;2024-01-06T05:57:59;10.30;;;4.63;;
46767;SDS011;69007;48.978;18.066;2024-01-06T06:00:25;11.02;;;4.32;;
46767;SDS011;69007;48.978;18.066;2024-01-06T06:02:51;12.38;;;5.00;;
46767;SDS011;69007;48.978;18.066;2024-01-06T06:05:16;16.38;;;5.38;;
46767;SDS011;69007;48.978;18.066;2024-01-06T06:07:42;11.57;;;5.43;;
46767;SDS011;69007;48.978;18.066;2024-01-06T06:10:09;14.05;;;4.75;;
46767;SDS011;69007;48.978;18.066;2024-01-06T06:12:35;8.70;;;4.60;;
46767;SDS011;69007;48.978;18.066;2024-01-06T06:15:02;7.80;;;4.10;;
46767;SDS011;69007;48.978;18.066;2024-01-06T06:17:29;8.80;;;4.85;;
46767;SDS011;69007;48.978;18.066;2024-01-06T06:19:55;11.10;;;4.70;;
46767;SDS011;69007;48.978;18.066;2024-01-06T06:22:22;10.85;;;4.53;;
46767;SDS011;69007;48.978;18.066;2024-01-06T06:24:47;12.02;;;5.07;;
46767;SDS011;69007;48.978;18.066;2024-01-06T06:27:12;8.15;;;4.75;;
46767;SDS011;69007;48.978;18.066;2024-01-06T06:29:38;13.32;;;5.03;;
46767;SDS011;69007;48.978;18.066;2024-01-06T06:32:03;8.40;;;4.30;;
46767;SDS011;69007;48.978;18.066;2024-01-06T06:34:29;14.23;;;4.63;;
46767;SDS011;69007;48.978;18.066;2024-01-06T06:36:54;14.25;;;4.75;;
46767;SDS011;69007;48.978;18.066;2024-01-06T06:39:19;11.75;;;4.60;;
46767;SDS011;69007;48.978;18.066;2024-01-06T06:41:44;10.80;;;4.53;;
46767;SDS011;69007;48.978;18.066;2024-01-06T06:44:10;9.30;;;4.57;;
46767;SDS011;69007;48.978;18.066;2024-01-06T06:46:36;8.50;;;4.78;;
46767;SDS011;69007;48.978;18.066;2024-01-06T06:49:01;8.52;;;4.65;;
46767;SDS011;69007;48.978;18.066;2024-01-06T06:51:27;10.25;;;4.65;;
46767;SDS011;69007;48.978;18.066;2024-01-06T06:53:53;48.10;;;7.70;;
46767;SDS011;69007;48.978;18.066;2024-01-06T06:56:19;25.95;;;11.10;;
46767;SDS011;69007;48.978;18.066;2024-01-06T06:58:44;22.20;;;10.98;;
46767;SDS011;69007;48.978;18.066;2024-01-06T07:01:10;22.08;;;13.00;;
46767;SDS011;69007;48.978;18.066;2024-01-06T07:03:35;21.27;;;12.45;;
46767;SDS011;69007;48.978;18.066;2024-01-06T07:06:01;36.22;;;20.85;;
46767;SDS011;69007;48.978;18.066;2024-01-06T07:08:26;19.17;;;11.70;;
46767;SDS011;69007;48.978;18.066;2024-01-06T07:10:52;18.85;;;12.07;;
46767;SDS011;69007;48.978;18.066;2024-01-06T07:13:18;66.78;;;16.83;;
46767;SDS011;69007;48.978;18.066;2024-01-06T07:15:43;22.30;;;13.13;;
46767;SDS011;69007;48.978;18.066;2024-01-06T07:18:10;32.83;;;10.25;;
46767;SDS011;69007;48.978;18.066;2024-01-06T07:20:35;49.78;;;10.73;;
46767;SDS011;69007;48.978;18.066;2024-01-06T07:23:00;23.23;;;10.70;;
46767;SDS011;69007;48.978;18.066;2024-01-06T07:25:28;47.45;;;13.00;;
46767;SDS011;69007;48.978;18.066;2024-01-06T07:27:53;174.30;;;15.18;;
46767;SDS011;69007;48.978;18.066;2024-01-06T07:30:18;28.65;;;12.38;;
46767;SDS011;69007;48.978;18.066;2024-01-06T07:32:44;45.78;;;13.30;;
46767;SDS011;69007;48.978;18.066;2024-01-06T07:35:09;19.55;;;12.85;;
46767;SDS011;69007;48.978;18.066;2024-01-06T07:37:34;19.63;;;13.38;;
46767;SDS011;69007;48.978;18.066;2024-01-06T07:40:00;16.73;;;12.73;;
46767;SDS011;69007;48.978;18.066;2024-01-06T07:42:25;29.42;;;13.60;;
46767;SDS011;69007;48.978;18.066;2024-01-06T07:44:50;19.65;;;12.82;;
46767;SDS011;69007;48.978;18.066;2024-01-06T07:47:16;24.48;;;13.13;;
46767;SDS011;69007;48.978;18.066;2024-01-06T07:49:41;21.75;;;12.93;;
46767;SDS011;69007;48.978;18.066;2024-01-06T07:52:06;21.77;;;12.93;;
46767;SDS011;69007;48.978;18.066;2024-01-06T07:54:32;21.70;;;12.27;;
46767;SDS011;69007;48.978;18.066;2024-01-06T07:56:57;18.85;;;12.68;;
46767;SDS011;69007;48.978;18.066;2024-01-06T07:59:22;22.42;;;13.35;;
46767;SDS011;69007;48.978;18.066;2024-01-06T08:01:48;21.88;;;13.13;;
46767;SDS011;69007;48.978;18.066;2024-01-06T08:04:14;20.02;;;12.45;;
46767;SDS011;69007;48.978;18.066;2024-01-06T08:06:39;17.15;;;11.00;;
46767;SDS011;69007;48.978;18.066;2024-01-06T08:09:05;18.48;;;11.68;;
46767;SDS011;69007;48.978;18.066;2024-01-06T08:11:31;21.10;;;13.00;;
46767;SDS011;69007;48.978;18.066;2024-01-06T08:13:56;18.58;;;12.13;;
46767;SDS011;69007;48.978;18.066;2024-01-06T08:16:21;26.05;;;13.60;;
46767;SDS011;69007;48.978;18.066;2024-01-06T08:18:47;22.92;;;13.07;;
46767;SDS011;69007;48.978;18.066;2024-01-06T08:21:12;20.42;;;12.18;;
46767;SDS011;69007;48.978;18.066;2024-01-06T08:23:38;19.15;;;9.80;;
46767;SDS011;69007;48.978;18.066;2024-01-06T08:26:03;9.63;;;5.93;;
46767;SDS011;69007;48.978;18.066;2024-01-06T08:28:30;10.95;;;6.00;;
46767;SDS011;69007;48.978;18.066;2024-01-06T08:30:55;15.55;;;6.43;;
46767;SDS011;69007;48.978;18.066;2024-01-06T08:33:21;8.82;;;5.85;;
46767;SDS011;69007;48.978;18.066;2024-01-06T08:35:46;9.85;;;5.70;;
46767;SDS011;69007;48.978;18.066;2024-01-06T08:38:12;15.35;;;6.55;;
46767;SDS011;69007;48.978;18.066;2024-01-06T08:40:37;11.23;;;6.00;;
46767;SDS011;69007;48.978;18.066;2024-01-06T08:43:03;11.90;;;5.80;;
46767;SDS011;69007;48.978;18.066;2024-01-06T08:45:28;9.70;;;5.95;;
46767;SDS011;69007;48.978;18.066;2024-01-06T08:47:54;8.05;;;5.65;;
46767;SDS011;69007;48.978;18.066;2024-01-06T08:50:19;9.73;;;5.63;;
46767;SDS011;69007;48.978;18.066;2024-01-06T08:52:45;8.75;;;5.13;;
46767;SDS011;69007;48.978;18.066;2024-01-06T08:55:10;12.15;;;5.28;;
46767;SDS011;69007;48.978;18.066;2024-01-06T08:57:36;12.82;;;5.57;;
46767;SDS011;69007;48.978;18.066;2024-01-06T09:00:02;12.32;;;4.80;;
46767;SDS011;69007;48.978;18.066;2024-01-06T09:02:28;9.20;;;4.53;;
46767;SDS011;69007;48.978;18.066;2024-01-06T09:04:54;8.57;;;4.70;;
46767;SDS011;69007;48.978;18.066;2024-01-06T09:07:19;7.40;;;4.50;;
46767;SDS011;69007;48.978;18.066;2024-01-06T09:09:45;8.57;;;4.18;;
46767;SDS011;69007;48.978;18.066;2024-01-06T09:12:11;11.60;;;4.40;;
46767;SDS011;69007;48.978;18.066;2024-01-06T09:14:36;9.73;;;4.88;;
46767;SDS011;69007;48.978;18.066;2024-01-06T09:17:01;11.85;;;4.25;;
46767;SDS011;69007;48.978;18.066;2024-01-06T09:19:27;10.95;;;4.90;;
46767;SDS011;69007;48.978;18.066;2024-01-06T09:21:53;5.03;;;3.63;;
46767;SDS011;69007;48.978;18.066;2024-01-06T09:24:19;8.52;;;4.25;;
46767;SDS011;69007;48.978;18.066;2024-01-06T09:26:45;41.53;;;14.73;;
46767;SDS011;69007;48.978;18.066;2024-01-06T09:29:11;27.23;;;10.65;;
46767;SDS011;69007;48.978;18.066;2024-01-06T09:31:36;14.57;;;6.95;;
46767;SDS011;69007;48.978;18.066;2024-01-06T09:34:01;17.10;;;6.57;;
46767;SDS011;69007;48.978;18.066;2024-01-06T09:36:31;24.70;;;10.15;;
46767;SDS011;69007;48.978;18.066;2024-01-06T09:38:56;15.38;;;6.15;;
46767;SDS011;69007;48.978;18.066;2024-01-06T09:41:22;21.65;;;9.32;;
46767;SDS011;69007;48.978;18.066;2024-01-06T09:43:48;22.63;;;9.80;;
46767;SDS011;69007;48.978;18.066;2024-01-06T09:46:15;19.10;;;8.13;;
46767;SDS011;69007;48.978;18.066;2024-01-06T09:48:50;13.32;;;7.13;;
46767;SDS011;69007;48.978;18.066;2024-01-06T09:51:18;15.10;;;7.97;;
46767;SDS011;69007;48.978;18.066;2024-01-06T09:53:48;13.13;;;7.47;;
46767;SDS011;69007;48.978;18.066;2024-01-06T09:56:15;12.38;;;7.45;;
46767;SDS011;69007;48.978;18.066;2024-01-06T09:58:41;13.02;;;7.07;;
46767;SDS011;69007;48.978;18.066;2024-01-06T10:01:07;9.88;;;6.70;;
46767;SDS011;69007;48.978;18.066;2024-01-06T10:03:34;17.15;;;8.60;;
46767;SDS011;69007;48.978;18.066;2024-01-06T10:06:01;15.77;;;8.63;;
46767;SDS011;69007;48.978;18.066;2024-01-06T10:08:29;13.48;;;8.13;;
46767;SDS011;69007;48.978;18.066;2024-01-06T10:10:55;11.15;;;7.07;;
46767;SDS011;69007;48.978;18.066;2024-01-06T10:13:20;13.20;;;7.28;;
46767;SDS011;69007;48.978;18.066;2024-01-06T10:15:46;11.15;;;7.35;;
46767;SDS011;69007;48.978;18.066;2024-01-06T10:18:11;10.35;;;6.63;;
46767;SDS011;69007;48.978;18.066;2024-01-06T10:20:38;10.35;;;6.32;;
46767;SDS011;69007;48.978;18.066;2024-01-06T10:23:04;13.82;;;7.43;;
46767;SDS011;69007;48.978;18.066;2024-01-06T10:25:30;11.20;;;7.32;;
46767;SDS011;69007;48.978;18.066;2024-01-06T10:27:56;15.85;;;6.43;;
46767;SDS011;69007;48.978;18.066;2024-01-06T10:30:22;11.80;;;6.00;;
46767;SDS011;69007;48.978;18.066;2024-01-06T10:32:49;8.75;;;5.95;;
46767;SDS011;69007;48.978;18.066;2024-01-06T10:35:15;13.02;;;7.18;;
46767;SDS011;69007;48.978;18.066;2024-01-06T10:37:41;9.85;;;7.00;;
46767;SDS011;69007;48.978;18.066;2024-01-06T10:42:37;16.50;;;6.50;;
46767;SDS011;69007;48.978;18.066;2024-01-06T10:45:05;12.77;;;6.60;;
46767;SDS011;69007;48.978;18.066;2024-01-06T10:47:33;9.38;;;6.22;;
46767;SDS011;69007;48.978;18.066;2024-01-06T10:50:00;10.35;;;6.72;;
46767;SDS011;69007;48.978;18.066;2024-01-06T10:52:26;15.60;;;7.68;;
46767;SDS011;69007;48.978;18.066;2024-01-06T10:54:56;15.75;;;6.82;;
46767;SDS011;69007;48.978;18.066;2024-01-06T10:57:22;9.63;;;6.00;;
46767;SDS011;69007;48.978;18.066;2024-01-06T10:59:49;10.50;;;6.43;;
46767;SDS011;69007;48.978;18.066;2024-01-06T11:02:16;16.17;;;8.00;;
46767;SDS011;69007;48.978;18.066;2024-01-06T11:04:43;53.90;;;34.40;;
46767;SDS011;69007;48.978;18.066;2024-01-06T11:07:17;32.60;;;20.92;;
46767;SDS011;69007;48.978;18.066;2024-01-06T11:09:47;29.38;;;20.25;;
46767;SDS011;69007;48.978;18.066;2024-01-06T11:12:18;19.13;;;11.65;;
46767;SDS011;69007;48.978;18.066;2024-01-06T11:14:43;21.88;;;13.77;;
46767;SDS011;69007;48.978;18.066;2024-01-06T11:17:10;29.92;;;18.00;;
46767;SDS011;69007;48.978;18.066;2024-01-06T11:24:54;9.48;;;5.13;;
46767;SDS011;69007;48.978;18.066;2024-01-06T11:27:27;6.18;;;3.80;;
46767;SDS011;69007;48.978;18.066;2024-01-06T11:29:57;8.50;;;4.68;;
46767;SDS011;69007;48.978;18.066;2024-01-06T11:32:33;6.82;;;4.45;;
46767;SDS011;69007;48.978;18.066;2024-01-06T11:35:12;18.08;;;10.52;;
46767;SDS011;69007;48.978;18.066;2024-01-06T11:40:09;16.25;;;9.50;;
46767;SDS011;69007;48.978;18.066;2024-01-06T11:45:10;274.73;;;19.98;;
46767;SDS011;69007;48.978;18.066;2024-01-06T11:47:38;59.30;;;16.98;;
46767;SDS011;69007;48.978;18.066;2024-01-06T11:50:05;163.10;;;17.50;;
46767;SDS011;69007;48.978;18.066;2024-01-06T11:52:33;83.13;;;19.40;;
46767;SDS011;69007;48.978;18.066;2024-01-06T11:55:00;35.55;;;17.35;;
46767;SDS011;69007;48.978;18.066;2024-01-06T11:57:26;33.80;;;19.20;;
46767;SDS011;69007;48.978;18.066;2024-01-06T11:59:53;25.98;;;16.10;;
46767;SDS011;69007;48.978;18.066;2024-01-06T12:02:18;21.98;;;14.05;;
46767;SDS011;69007;48.978;18.066;2024-01-06T12:04:53;19.35;;;10.52;;
46767;SDS011;69007;48.978;18.066;2024-01-06T12:07:19;14.97;;;9.50;;
46767;SDS011;69007;48.978;18.066;2024-01-06T12:09:47;15.68;;;8.98;;
46767;SDS011;69007;48.978;18.066;2024-01-06T12:12:16;21.20;;;11.48;;
46767;SDS011;69007;48.978;18.066;2024-01-06T12:14:42;29.02;;;15.73;;
46767;SDS011;69007;48.978;18.066;2024-01-06T12:17:09;12.25;;;9.20;;
46767;SDS011;69007;48.978;18.066;2024-01-06T12:19:35;17.13;;;12.07;;
46767;SDS011;69007;48.978;18.066;2024-01-06T12:22:00;20.38;;;14.02;;
46767;SDS011;69007;48.978;18.066;2024-01-06T12:24:28;20.92;;;11.18;;
46767;SDS011;69007;48.978;18.066;2024-01-06T12:26:55;15.50;;;10.60;;
46767;SDS011;69007;48.978;18.066;2024-01-06T12:29:22;17.00;;;11.23;;
46767;SDS011;69007;48.978;18.066;2024-01-06T12:31:47;44.85;;;25.35;;
46767;SDS011;69007;48.978;18.066;2024-01-06T12:34:12;32.83;;;20.30;;
46767;SDS011;69007;48.978;18.066;2024-01-06T12:36:38;31.30;;;19.83;;
46767;SDS011;69007;48.978;18.066;2024-01-06T12:39:05;28.27;;;16.80;;
46767;SDS011;69007;48.978;18.066;2024-01-06T12:41:35;29.88;;;17.67;;
46767;SDS011;69007;48.978;18.066;2024-01-06T12:44:02;26.58;;;14.77;;
46767;SDS011;69007;48.978;18.066;2024-01-06T12:46:28;21.75;;;14.40;;
46767;SDS011;69007;48.978;18.066;2024-01-06T12:48:53;24.88;;;14.98;;
46767;SDS011;69007;48.978;18.066;2024-01-06T12:51:19;29.23;;;16.35;;
46767;SDS011;69007;48.978;18.066;2024-01-06T12:53:44;20.40;;;13.90;;
46767;SDS011;69007;48.978;18.066;2024-01-06T12:56:09;25.75;;;16.42;;
46767;SDS011;69007;48.978;18.066;2024-01-06T12:58:35;22.08;;;14.27;;
46767;SDS011;69007;48.978;18.066;2024-01-06T13:01:00;22.02;;;12.25;;
46767;SDS011;69007;48.978;18.066;2024-01-06T13:03:27;16.17;;;10.32;;
46767;SDS011;69007;48.978;18.066;2024-01-06T13:05:53;16.38;;;10.52;;
46767;SDS011;69007;48.978;18.066;2024-01-06T13:08:18;15.32;;;7.50;;
46767;SDS011;69007;48.978;18.066;2024-01-06T13:10:44;11.35;;;7.18;;
46767;SDS011;69007;48.978;18.066;2024-01-06T13:13:09;12.88;;;7.38;;
46767;SDS011;69007;48.978;18.066;2024-01-06T13:15:34;14.10;;;7.30;;
46767;SDS011;69007;48.978;18.066;2024-01-06T13:18:00;10.00;;;6.28;;
46767;SDS011;69007;48.978;18.066;2024-01-06T13:20:25;12.82;;;5.63;;
46767;SDS011;69007;48.978;18.066;2024-01-06T13:22:50;9.82;;;5.53;;
46767;SDS011;69007;48.978;18.066;2024-01-06T13:25:16;9.35;;;5.78;;
46767;SDS011;69007;48.978;18.066;2024-01-06T13:27:42;9.07;;;5.18;;
46767;SDS011;69007;48.978;18.066;2024-01-06T13:30:07;9.20;;;5.38;;
46767;SDS011;69007;48.978;18.066;2024-01-06T13:32:33;9.77;;;6.25;;
46767;SDS011;69007;48.978;18.066;2024-01-06T13:34:59;8.63;;;5.45;;
46767;SDS011;69007;48.978;18.066;2024-01-06T13:37:29;10.32;;;5.95;;
46767;SDS011;69007;48.978;18.066;2024-01-06T13:39:56;10.68;;;6.50;;
46767;SDS011;69007;48.978;18.066;2024-01-06T13:42:21;9.82;;;6.68;;
46767;SDS011;69007;48.978;18.066;2024-01-06T13:44:47;10.10;;;6.32;;
46767;SDS011;69007;48.978;18.066;2024-01-06T13:47:13;8.60;;;6.07;;
46767;SDS011;69007;48.978;18.066;2024-01-06T13:49:39;7.70;;;5.43;;
46767;SDS011;69007;48.978;18.066;2024-01-06T13:52:05;7.57;;;5.32;;
46767;SDS011;69007;48.978;18.066;2024-01-06T13:54:32;9.98;;;5.75;;
46767;SDS011;69007;48.978;18.066;2024-01-06T13:57:01;9.55;;;6.18;;
46767;SDS011;69007;48.978;18.066;2024-01-06T13:59:26;19.42;;;9.43;;
46767;SDS011;69007;48.978;18.066;2024-01-06T14:01:52;34.53;;;17.05;;
46767;SDS011;69007;48.978;18.066;2024-01-06T14:04:19;13.77;;;8.48;;
46767;SDS011;69007;48.978;18.066;2024-01-06T14:06:44;12.68;;;7.07;;
46767;SDS011;69007;48.978;18.066;2024-01-06T14:09:12;10.65;;;6.50;;
46767;SDS011;69007;48.978;18.066;2024-01-06T14:11:38;9.57;;;6.30;;
46767;SDS011;69007;48.978;18.066;2024-01-06T14:14:04;8.43;;;5.82;;
46767;SDS011;69007;48.978;18.066;2024-01-06T14:16:30;11.70;;;6.18;;
46767;SDS011;69007;48.978;18.066;2024-01-06T14:18:55;8.95;;;6.18;;
46767;SDS011;69007;48.978;18.066;2024-01-06T14:21:21;9.50;;;6.28;;
46767;SDS011;69007;48.978;18.066;2024-01-06T14:23:46;10.43;;;6.35;;
46767;SDS011;69007;48.978;18.066;2024-01-06T14:26:14;9.65;;;5.72;;
46767;SDS011;69007;48.978;18.066;2024-01-06T14:28:39;6.70;;;5.00;;